sensor_id;sensor_type;location;lat;lon;timestamp;pressure;altitude;pressure_sealevel;temperature;humidity
75414;BME280;64758;52.122;5.404;2023-07-08T00:00:25;101952.25;;;17.79;82.13
75414;BME280;64758;52.122;5.404;2023-07-08T00:02:52;101949.53;;;17.73;82.85
75414;BME280;64758;52.122;5.404;2023-07-08T00:05:21;101952.84;;;17.75;78.40
75414;BME280;64758;52.122;5.404;2023-07-08T00:07:48;101940.03;;;17.70;79.50
75414;BME280;64758;52.122;5.404;2023-07-08T00:10:16;101940.84;;;17.71;82.54
75414;BME280;64758;52.122;5.404;2023-07-08T00:12:44;101935.88;;;17.68;82.81
75414;BME280;64758;52.122;5.404;2023-07-08T00:15:11;101927.81;;;17.68;78.99
75414;BME280;64758;52.122;5.404;2023-07-08T00:17:38;101932.19;;;17.62;76.70
75414;BME280;64758;52.122;5.404;2023-07-08T00:20:20;101934.66;;;17.64;79.67
75414;BME280;64758;52.122;5.404;2023-07-08T00:22:48;101924.94;;;17.56;81.50
75414;BME280;64758;52.122;5.404;2023-07-08T00:25:17;101927.41;;;17.51;82.90
75414;BME280;64758;52.122;5.404;2023-07-08T00:27:46;101925.94;;;17.49;83.78
75414;BME280;64758;52.122;5.404;2023-07-08T00:32:48;101925.50;;;17.39;84.09
75414;BME280;64758;52.122;5.404;2023-07-08T00:35:34;101921.78;;;17.40;84.01
75414;BME280;64758;52.122;5.404;2023-07-08T00:40:48;101923.84;;;17.38;80.32
75414;BME280;64758;52.122;5.404;2023-07-08T00:43:16;101919.31;;;17.38;82.93
75414;BME280;64758;52.122;5.404;2023-07-08T00:45:53;101923.22;;;17.36;83.56
75414;BME280;64758;52.122;5.404;2023-07-08T00:48:31;101910.59;;;17.30;83.78
75414;BME280;64758;52.122;5.404;2023-07-08T00:51:00;101914.72;;;17.26;82.99
75414;BME280;64758;52.122;5.404;2023-07-08T00:53:30;101915.56;;;17.26;79.85
75414;BME280;64758;52.122;5.404;2023-07-08T00:56:03;101908.94;;;17.22;81.88
75414;BME280;64758;52.122;5.404;2023-07-08T00:59:03;101902.72;;;17.22;80.43
75414;BME280;64758;52.122;5.404;2023-07-08T01:01:32;101906.66;;;17.19;78.29
75414;BME280;64758;52.122;5.404;2023-07-08T01:04:04;101909.34;;;17.26;77.31
75414;BME280;64758;52.122;5.404;2023-07-08T01:06:34;101913.94;;;17.32;79.09
75414;BME280;64758;52.122;5.404;2023-07-08T01:09:08;101912.69;;;17.41;74.66
75414;BME280;64758;52.122;5.404;2023-07-08T01:11:37;101893.69;;;17.49;74.19
75414;BME280;64758;52.122;5.404;2023-07-08T01:14:07;101907.34;;;17.54;76.95
75414;BME280;64758;52.122;5.404;2023-07-08T01:16:35;101899.09;;;17.55;76.07
75414;BME280;64758;52.122;5.404;2023-07-08T01:19:04;101890.81;;;17.50;76.50
75414;BME280;64758;52.122;5.404;2023-07-08T01:24:20;101903.44;;;17.56;76.83
75414;BME280;64758;52.122;5.404;2023-07-08T01:26:47;101897.22;;;17.56;76.66
75414;BME280;64758;52.122;5.404;2023-07-08T01:29:14;101897.44;;;17.54;77.08
75414;BME280;64758;52.122;5.404;2023-07-08T01:31:41;101894.31;;;17.51;76.51
75414;BME280;64758;52.122;5.404;2023-07-08T01:34:16;101889.16;;;17.43;76.80
75414;BME280;64758;52.122;5.404;2023-07-08T01:36:47;101892.47;;;17.45;76.73
75414;BME280;64758;52.122;5.404;2023-07-08T01:39:18;101891.84;;;17.43;76.47
75414;BME280;64758;52.122;5.404;2023-07-08T01:41:46;101892.88;;;17.42;76.76
75414;BME280;64758;52.122;5.404;2023-07-08T01:44:35;101887.72;;;17.40;76.58
75414;BME280;64758;52.122;5.404;2023-07-08T01:47:13;101877.16;;;17.39;76.74
75414;BME280;64758;52.122;5.404;2023-07-08T01:49:42;101887.91;;;17.39;79.08
75414;BME280;64758;52.122;5.404;2023-07-08T01:52:12;101880.41;;;17.28;80.80
75414;BME280;64758;52.122;5.404;2023-07-08T01:54:39;101888.25;;;17.23;81.65
75414;BME280;64758;52.122;5.404;2023-07-08T01:57:05;101887.22;;;17.17;81.63
75414;BME280;64758;52.122;5.404;2023-07-08T01:59:32;101877.28;;;17.11;81.33
75414;BME280;64758;52.122;5.404;2023-07-08T02:01:59;101877.09;;;17.06;81.70
75414;BME280;64758;52.122;5.404;2023-07-08T02:04:26;101876.22;;;17.06;80.85
75414;BME280;64758;52.122;5.404;2023-07-08T02:06:54;101863.22;;;17.03;82.71
75414;BME280;64758;52.122;5.404;2023-07-08T02:09:22;101857.00;;;16.96;80.79
75414;BME280;64758;52.122;5.404;2023-07-08T02:11:49;101857.41;;;16.93;81.65
75414;BME280;64758;52.122;5.404;2023-07-08T02:14:15;101863.00;;;16.91;83.56
75414;BME280;64758;52.122;5.404;2023-07-08T02:16:42;101855.13;;;16.83;83.94
75414;BME280;64758;52.122;5.404;2023-07-08T02:19:10;101851.78;;;16.75;84.39
75414;BME280;64758;52.122;5.404;2023-07-08T02:21:36;101857.53;;;16.72;85.10
75414;BME280;64758;52.122;5.404;2023-07-08T02:24:04;101848.88;;;16.70;84.42
75414;BME280;64758;52.122;5.404;2023-07-08T02:26:31;101854.63;;;16.67;84.28
75414;BME280;64758;52.122;5.404;2023-07-08T02:29:00;101852.75;;;16.61;84.90
75414;BME280;64758;52.122;5.404;2023-07-08T02:31:27;101850.91;;;16.55;84.52
75414;BME280;64758;52.122;5.404;2023-07-08T02:33:54;101852.13;;;16.53;85.48
75414;BME280;64758;52.122;5.404;2023-07-08T02:36:21;101845.91;;;16.46;85.97
75414;BME280;64758;52.122;5.404;2023-07-08T02:38:48;101854.97;;;16.45;86.93
75414;BME280;64758;52.122;5.404;2023-07-08T02:41:14;101846.50;;;16.41;86.12
75414;BME280;64758;52.122;5.404;2023-07-08T02:43:41;101840.50;;;16.39;85.48
75414;BME280;64758;52.122;5.404;2023-07-08T02:46:07;101833.91;;;16.35;84.94
75414;BME280;64758;52.122;5.404;2023-07-08T02:48:34;101836.19;;;16.38;86.96
75414;BME280;64758;52.122;5.404;2023-07-08T02:51:05;101839.03;;;16.37;87.11
75414;BME280;64758;52.122;5.404;2023-07-08T02:53:31;101836.56;;;16.35;87.88
75414;BME280;64758;52.122;5.404;2023-07-08T02:55:58;101830.09;;;16.30;87.60
75414;BME280;64758;52.122;5.404;2023-07-08T02:58:25;101825.53;;;16.24;87.27
75414;BME280;64758;52.122;5.404;2023-07-08T03:00:56;101841.63;;;16.24;88.25
75414;BME280;64758;52.122;5.404;2023-07-08T03:03:26;101832.53;;;16.18;88.27
75414;BME280;64758;52.122;5.404;2023-07-08T03:06:03;101829.38;;;16.08;87.28
75414;BME280;64758;52.122;5.404;2023-07-08T03:08:32;101836.16;;;16.04;87.23
75414;BME280;64758;52.122;5.404;2023-07-08T03:11:02;101835.13;;;16.05;87.79
75414;BME280;64758;52.122;5.404;2023-07-08T03:13:30;101835.31;;;16.04;85.77
75414;BME280;64758;52.122;5.404;2023-07-08T03:15:58;101833.66;;;16.03;86.49
75414;BME280;64758;52.122;5.404;2023-07-08T03:18:29;101823.56;;;15.98;87.84
75414;BME280;64758;52.122;5.404;2023-07-08T03:20:57;101832.63;;;15.97;87.17
75414;BME280;64758;52.122;5.404;2023-07-08T03:23:25;101827.66;;;15.94;87.71
75414;BME280;64758;52.122;5.404;2023-07-08T03:25:52;101834.03;;;15.93;87.95
75414;BME280;64758;52.122;5.404;2023-07-08T03:28:18;101838.13;;;15.89;88.14
75414;BME280;64758;52.122;5.404;2023-07-08T03:30:51;101834.81;;;15.87;88.23
75414;BME280;64758;52.122;5.404;2023-07-08T03:33:18;101841.19;;;15.86;88.66
75414;BME280;64758;52.122;5.404;2023-07-08T03:35:45;101845.94;;;15.84;88.52
75414;BME280;64758;52.122;5.404;2023-07-08T03:38:12;101840.97;;;15.81;89.27
75414;BME280;64758;52.122;5.404;2023-07-08T03:40:39;101841.34;;;15.78;89.75
75414;BME280;64758;52.122;5.404;2023-07-08T03:43:05;101840.09;;;15.74;89.66
75414;BME280;64758;52.122;5.404;2023-07-08T03:45:32;101835.94;;;15.72;89.42
75414;BME280;64758;52.122;5.404;2023-07-08T03:47:58;101844.16;;;15.70;89.65
75414;BME280;64758;52.122;5.404;2023-07-08T03:50:26;101840.47;;;15.71;90.62
75414;BME280;64758;52.122;5.404;2023-07-08T03:52:54;101844.16;;;15.70;91.22
75414;BME280;64758;52.122;5.404;2023-07-08T03:55:21;101845.81;;;15.71;91.06
75414;BME280;64758;52.122;5.404;2023-07-08T03:57:48;101837.53;;;15.66;90.56
75414;BME280;64758;52.122;5.404;2023-07-08T04:00:15;101837.97;;;15.70;91.47
75414;BME280;64758;52.122;5.404;2023-07-08T04:02:42;101844.81;;;15.72;91.18
75414;BME280;64758;52.122;5.404;2023-07-08T04:05:17;101841.28;;;15.72;91.51
75414;BME280;64758;52.122;5.404;2023-07-08T04:07:44;101847.09;;;15.75;91.42
75414;BME280;64758;52.122;5.404;2023-07-08T04:10:11;101838.03;;;15.76;91.02
75414;BME280;64758;52.122;5.404;2023-07-08T04:12:39;101838.84;;;15.77;91.84
75414;BME280;64758;52.122;5.404;2023-07-08T04:15:08;101839.69;;;15.77;92.51
75414;BME280;64758;52.122;5.404;2023-07-08T04:17:46;101841.97;;;15.80;91.93
75414;BME280;64758;52.122;5.404;2023-07-08T04:20:16;101850.06;;;15.87;90.65
75414;BME280;64758;52.122;5.404;2023-07-08T04:22:45;101856.28;;;15.94;89.95
75414;BME280;64758;52.122;5.404;2023-07-08T04:25:12;101850.78;;;16.02;89.09
75414;BME280;64758;52.122;5.404;2023-07-08T04:27:40;101845.84;;;16.05;90.75
75414;BME280;64758;52.122;5.404;2023-07-08T04:30:30;101840.34;;;16.13;91.93
75414;BME280;64758;52.122;5.404;2023-07-08T04:32:56;101844.06;;;16.19;92.78
75414;BME280;64758;52.122;5.404;2023-07-08T04:35:23;101841.84;;;16.22;91.59
75414;BME280;64758;52.122;5.404;2023-07-08T04:37:49;101839.63;;;16.32;91.76
75414;BME280;64758;52.122;5.404;2023-07-08T04:40:19;101849.78;;;16.37;91.23
75414;BME280;64758;52.122;5.404;2023-07-08T04:42:46;101848.16;;;16.42;91.71
75414;BME280;64758;52.122;5.404;2023-07-08T04:45:17;101847.75;;;16.45;91.25
75414;BME280;64758;52.122;5.404;2023-07-08T04:47:44;101854.16;;;16.51;90.82
75414;BME280;64758;52.122;5.404;2023-07-08T04:50:13;101839.75;;;16.58;91.20
75414;BME280;64758;52.122;5.404;2023-07-08T04:52:40;101842.25;;;16.66;91.16
75414;BME280;64758;52.122;5.404;2023-07-08T04:55:06;101841.03;;;16.75;87.06
75414;BME280;64758;52.122;5.404;2023-07-08T04:57:33;101850.38;;;16.92;85.77
75414;BME280;64758;52.122;5.404;2023-07-08T04:59:59;101858.69;;;17.03;88.21
75414;BME280;64758;52.122;5.404;2023-07-08T05:02:26;101839.28;;;17.08;87.98
75414;BME280;64758;52.122;5.404;2023-07-08T05:04:53;101847.53;;;17.13;87.43
75414;BME280;64758;52.122;5.404;2023-07-08T05:07:19;101849.00;;;17.22;85.55
75414;BME280;64758;52.122;5.404;2023-07-08T05:09:46;101844.94;;;17.32;81.55
75414;BME280;64758;52.122;5.404;2023-07-08T05:12:12;101846.59;;;17.46;81.24
75414;BME280;64758;52.122;5.404;2023-07-08T05:14:39;101835.66;;;17.54;81.17
75414;BME280;64758;52.122;5.404;2023-07-08T05:17:06;101836.06;;;17.64;80.46
75414;BME280;64758;52.122;5.404;2023-07-08T05:19:33;101836.03;;;17.77;79.59
75414;BME280;64758;52.122;5.404;2023-07-08T05:21:59;101833.34;;;17.84;77.20
75414;BME280;64758;52.122;5.404;2023-07-08T05:24:27;101828.34;;;17.93;78.08
75414;BME280;64758;52.122;5.404;2023-07-08T05:26:53;101843.44;;;18.07;79.72
75414;BME280;64758;52.122;5.404;2023-07-08T05:29:20;101833.47;;;18.14;79.62
75414;BME280;64758;52.122;5.404;2023-07-08T05:31:46;101828.28;;;18.19;77.84
75414;BME280;64758;52.122;5.404;2023-07-08T05:34:14;101829.75;;;18.28;76.31
75414;BME280;64758;52.122;5.404;2023-07-08T05:36:41;101832.81;;;18.38;77.18
75414;BME280;64758;52.122;5.404;2023-07-08T05:39:07;101834.44;;;18.46;76.69
75414;BME280;64758;52.122;5.404;2023-07-08T05:41:34;101837.13;;;18.52;76.19
75414;BME280;64758;52.122;5.404;2023-07-08T05:44:01;101837.31;;;18.57;74.90
75414;BME280;64758;52.122;5.404;2023-07-08T05:46:27;101840.97;;;18.69;75.47
75414;BME280;64758;52.122;5.404;2023-07-08T05:48:54;101827.25;;;18.77;75.25
75414;BME280;64758;52.122;5.404;2023-07-08T05:51:21;101830.50;;;18.86;74.81
75414;BME280;64758;52.122;5.404;2023-07-08T05:53:47;101826.31;;;18.96;75.26
75414;BME280;64758;52.122;5.404;2023-07-08T05:56:14;101820.28;;;19.01;75.72
75414;BME280;64758;52.122;5.404;2023-07-08T05:58:41;101819.81;;;19.10;74.35
75414;BME280;64758;52.122;5.404;2023-07-08T06:01:07;101826.22;;;19.16;73.80
75414;BME280;64758;52.122;5.404;2023-07-08T06:03:34;101828.41;;;19.25;73.06
75414;BME280;64758;52.122;5.404;2023-07-08T06:06:00;101832.72;;;19.32;72.43
75414;BME280;64758;52.122;5.404;2023-07-08T06:08:28;101827.28;;;19.39;72.47
75414;BME280;64758;52.122;5.404;2023-07-08T06:10:55;101832.56;;;19.52;73.03
75414;BME280;64758;52.122;5.404;2023-07-08T06:13:21;101833.72;;;19.62;73.03
75414;BME280;64758;52.122;5.404;2023-07-08T06:15:48;101834.06;;;19.72;73.42
75414;BME280;64758;52.122;5.404;2023-07-08T06:18:15;101834.59;;;19.81;73.02
75414;BME280;64758;52.122;5.404;2023-07-08T06:20:41;101832.59;;;19.94;74.06
75414;BME280;64758;52.122;5.404;2023-07-08T06:23:08;101833.59;;;20.00;70.70
75414;BME280;64758;52.122;5.404;2023-07-08T06:25:34;101827.69;;;20.09;71.93
75414;BME280;64758;52.122;5.404;2023-07-08T06:28:01;101820.22;;;20.11;70.19
75414;BME280;64758;52.122;5.404;2023-07-08T06:30:27;101826.28;;;20.25;71.75
75414;BME280;64758;52.122;5.404;2023-07-08T06:32:54;101830.56;;;20.32;70.81
75414;BME280;64758;52.122;5.404;2023-07-08T06:35:21;101831.31;;;20.39;71.35
75414;BME280;64758;52.122;5.404;2023-07-08T06:37:47;101832.41;;;20.50;70.57
75414;BME280;64758;52.122;5.404;2023-07-08T06:40:14;101840.78;;;20.59;71.37
75414;BME280;64758;52.122;5.404;2023-07-08T06:42:40;101832.38;;;20.67;70.75
75414;BME280;64758;52.122;5.404;2023-07-08T06:45:07;101841.81;;;20.76;67.91
75414;BME280;64758;52.122;5.404;2023-07-08T06:47:34;101840.47;;;20.85;69.75
75414;BME280;64758;52.122;5.404;2023-07-08T06:50:01;101842.75;;;21.00;70.65
75414;BME280;64758;52.122;5.404;2023-07-08T06:52:28;101841.16;;;21.10;71.26
75414;BME280;64758;52.122;5.404;2023-07-08T06:55:01;101835.44;;;21.18;69.60
75414;BME280;64758;52.122;5.404;2023-07-08T06:57:31;101830.38;;;21.22;67.75
75414;BME280;64758;52.122;5.404;2023-07-08T06:59:57;101818.41;;;21.29;67.59
75414;BME280;64758;52.122;5.404;2023-07-08T07:02:24;101833.25;;;21.38;66.47
75414;BME280;64758;52.122;5.404;2023-07-08T07:04:51;101830.53;;;21.50;66.67
75414;BME280;64758;52.122;5.404;2023-07-08T07:07:17;101828.25;;;21.65;69.00
75414;BME280;64758;52.122;5.404;2023-07-08T07:09:44;101830.47;;;21.68;66.89
75414;BME280;64758;52.122;5.404;2023-07-08T07:12:11;101836.47;;;21.70;66.06
75414;BME280;64758;52.122;5.404;2023-07-08T07:14:37;101835.66;;;21.81;67.84
75414;BME280;64758;52.122;5.404;2023-07-08T07:17:07;101822.00;;;21.87;65.66
75414;BME280;64758;52.122;5.404;2023-07-08T07:19:36;101820.84;;;21.94;63.71
75414;BME280;64758;52.122;5.404;2023-07-08T07:22:03;101822.69;;;21.94;64.80
75414;BME280;64758;52.122;5.404;2023-07-08T07:24:29;101819.41;;;22.03;64.60
75414;BME280;64758;52.122;5.404;2023-07-08T07:26:56;101815.19;;;22.07;63.65
75414;BME280;64758;52.122;5.404;2023-07-08T07:29:23;101816.56;;;22.10;62.63
75414;BME280;64758;52.122;5.404;2023-07-08T07:31:50;101818.53;;;22.26;63.03
75414;BME280;64758;52.122;5.404;2023-07-08T07:34:18;101820.31;;;22.43;64.13
75414;BME280;64758;52.122;5.404;2023-07-08T07:36:44;101814.75;;;22.50;64.03
75414;BME280;64758;52.122;5.404;2023-07-08T07:39:11;101816.69;;;22.66;66.43
75414;BME280;64758;52.122;5.404;2023-07-08T07:41:37;101817.38;;;22.73;64.39
75414;BME280;64758;52.122;5.404;2023-07-08T07:44:04;101816.19;;;22.80;62.54
75414;BME280;64758;52.122;5.404;2023-07-08T07:46:31;101816.50;;;22.84;61.72
75414;BME280;64758;52.122;5.404;2023-07-08T07:48:57;101826.88;;;22.87;62.57
75414;BME280;64758;52.122;5.404;2023-07-08T07:51:24;101818.44;;;23.00;63.51
75414;BME280;64758;52.122;5.404;2023-07-08T07:53:50;101811.75;;;23.19;66.62
75414;BME280;64758;52.122;5.404;2023-07-08T07:56:17;101803.81;;;23.28;65.58
75414;BME280;64758;52.122;5.404;2023-07-08T07:58:43;101806.69;;;23.38;64.52
75414;BME280;64758;52.122;5.404;2023-07-08T08:01:10;101799.78;;;23.47;63.56
75414;BME280;64758;52.122;5.404;2023-07-08T08:03:39;101806.16;;;23.58;64.27
75414;BME280;64758;52.122;5.404;2023-07-08T08:06:06;101797.88;;;23.64;64.06
75414;BME280;64758;52.122;5.404;2023-07-08T08:08:32;101793.66;;;23.73;60.94
75414;BME280;64758;52.122;5.404;2023-07-08T08:11:03;101791.03;;;23.78;59.85
75414;BME280;64758;52.122;5.404;2023-07-08T08:13:29;101792.22;;;23.82;60.55
75414;BME280;64758;52.122;5.404;2023-07-08T08:15:59;101788.72;;;23.87;60.36
75414;BME280;64758;52.122;5.404;2023-07-08T08:18:26;101798.94;;;23.96;61.84
75414;BME280;64758;52.122;5.404;2023-07-08T08:20:53;101788.00;;;24.13;61.54
75414;BME280;64758;52.122;5.404;2023-07-08T08:23:20;101795.91;;;24.14;57.59
75414;BME280;64758;52.122;5.404;2023-07-08T08:25:46;101803.06;;;24.20;59.25
75414;BME280;64758;52.122;5.404;2023-07-08T08:28:13;101802.09;;;24.31;61.04
75414;BME280;64758;52.122;5.404;2023-07-08T08:30:40;101805.31;;;24.28;57.57
75414;BME280;64758;52.122;5.404;2023-07-08T08:33:06;101808.34;;;24.32;59.88
75414;BME280;64758;52.122;5.404;2023-07-08T08:35:33;101804.88;;;24.36;58.04
75414;BME280;64758;52.122;5.404;2023-07-08T08:38:00;101801.69;;;24.44;60.14
75414;BME280;64758;52.122;5.404;2023-07-08T08:40:26;101801.56;;;24.51;58.40
75414;BME280;64758;52.122;5.404;2023-07-08T08:43:01;101810.06;;;24.59;59.28
75414;BME280;64758;52.122;5.404;2023-07-08T08:45:41;101823.09;;;24.78;58.26
75414;BME280;64758;52.122;5.404;2023-07-08T08:48:13;101813.44;;;24.92;56.14
75414;BME280;64758;52.122;5.404;2023-07-08T08:51:00;101818.72;;;25.04;59.33
75414;BME280;64758;52.122;5.404;2023-07-08T08:53:29;101812.81;;;25.12;57.51
75414;BME280;64758;52.122;5.404;2023-07-08T08:56:03;101825.47;;;25.23;58.35
75414;BME280;64758;52.122;5.404;2023-07-08T08:58:44;101811.09;;;25.27;57.25
75414;BME280;64758;52.122;5.404;2023-07-08T09:01:13;101816.91;;;25.41;59.41
75414;BME280;64758;52.122;5.404;2023-07-08T09:06:34;101816.56;;;25.64;57.81
75414;BME280;64758;52.122;5.404;2023-07-08T09:09:11;101825.06;;;25.77;56.55
75414;BME280;64758;52.122;5.404;2023-07-08T09:11:49;101817.84;;;25.88;55.81
75414;BME280;64758;52.122;5.404;2023-07-08T09:14:28;101812.47;;;25.98;55.86
75414;BME280;64758;52.122;5.404;2023-07-08T09:17:09;101810.31;;;26.04;53.77
75414;BME280;64758;52.122;5.404;2023-07-08T09:19:42;101822.59;;;26.12;51.92
75414;BME280;64758;52.122;5.404;2023-07-08T09:22:25;101812.28;;;26.19;54.25
75414;BME280;64758;52.122;5.404;2023-07-08T09:25:05;101809.34;;;26.30;55.73
75414;BME280;64758;52.122;5.404;2023-07-08T09:27:37;101805.28;;;26.38;53.15
75414;BME280;64758;52.122;5.404;2023-07-08T09:30:04;101807.53;;;26.46;54.48
75414;BME280;64758;52.122;5.404;2023-07-08T09:32:31;101794.75;;;26.51;54.67
75414;BME280;64758;52.122;5.404;2023-07-08T09:35:06;101801.03;;;26.62;54.38
75414;BME280;64758;52.122;5.404;2023-07-08T09:37:35;101800.00;;;26.73;52.73
75414;BME280;64758;52.122;5.404;2023-07-08T09:42:50;101792.66;;;26.93;54.42
75414;BME280;64758;52.122;5.404;2023-07-08T09:45:23;101796.47;;;27.02;53.06
75414;BME280;64758;52.122;5.404;2023-07-08T09:47:55;101802.53;;;27.14;50.44
75414;BME280;64758;52.122;5.404;2023-07-08T09:50:27;101807.19;;;27.19;53.00
75414;BME280;64758;52.122;5.404;2023-07-08T09:52:56;101806.38;;;27.28;53.34
75414;BME280;64758;52.122;5.404;2023-07-08T09:55:27;101800.91;;;27.33;50.71
75414;BME280;64758;52.122;5.404;2023-07-08T09:57:55;101804.72;;;27.47;50.45
75414;BME280;64758;52.122;5.404;2023-07-08T10:00:38;101807.44;;;27.57;50.88
75414;BME280;64758;52.122;5.404;2023-07-08T10:03:12;101814.00;;;27.66;51.63
75414;BME280;64758;52.122;5.404;2023-07-08T10:05:43;101816.22;;;27.69;46.06
75414;BME280;64758;52.122;5.404;2023-07-08T10:08:21;101815.66;;;27.72;48.97
75414;BME280;64758;52.122;5.404;2023-07-08T10:10:56;101809.63;;;27.80;49.03
75414;BME280;64758;52.122;5.404;2023-07-08T10:16:24;101811.75;;;28.08;50.35
75414;BME280;64758;52.122;5.404;2023-07-08T10:18:52;101808.19;;;28.12;49.00
75414;BME280;64758;52.122;5.404;2023-07-08T10:21:37;101807.09;;;28.13;47.90
75414;BME280;64758;52.122;5.404;2023-07-08T10:29:34;101796.34;;;28.42;46.55
75414;BME280;64758;52.122;5.404;2023-07-08T10:32:10;101805.31;;;28.52;49.00
75414;BME280;64758;52.122;5.404;2023-07-08T10:38:06;101788.53;;;28.73;48.93
75414;BME280;64758;52.122;5.404;2023-07-08T10:49:24;101797.47;;;28.89;45.86
75414;BME280;64758;52.122;5.404;2023-07-08T11:00:51;101781.44;;;29.11;47.02
75414;BME280;64758;52.122;5.404;2023-07-08T11:05:56;101773.72;;;29.18;44.66
75414;BME280;64758;52.122;5.404;2023-07-08T11:08:29;101781.59;;;29.29;47.25
75414;BME280;64758;52.122;5.404;2023-07-08T11:11:01;101779.84;;;29.38;47.52
75414;BME280;64758;52.122;5.404;2023-07-08T11:13:34;101782.81;;;29.42;46.28
75414;BME280;64758;52.122;5.404;2023-07-08T11:16:40;101783.34;;;29.49;48.67
75414;BME280;64758;52.122;5.404;2023-07-08T11:19:15;101781.09;;;29.56;47.22
75414;BME280;64758;52.122;5.404;2023-07-08T11:21:51;101776.88;;;29.63;48.46
75414;BME280;64758;52.122;5.404;2023-07-08T11:29:48;101768.06;;;29.95;44.29
75414;BME280;64758;52.122;5.404;2023-07-08T11:32:18;101783.59;;;30.04;47.23
75414;BME280;64758;52.122;5.404;2023-07-08T11:34:48;101768.72;;;30.10;48.34
75414;BME280;64758;52.122;5.404;2023-07-08T11:37:17;101772.88;;;30.08;40.26
75414;BME280;64758;52.122;5.404;2023-07-08T11:39:45;101772.56;;;30.09;44.16
75414;BME280;64758;52.122;5.404;2023-07-08T11:44:56;101772.19;;;30.20;47.02
75414;BME280;64758;52.122;5.404;2023-07-08T11:47:35;101766.91;;;30.24;45.64
75414;BME280;64758;52.122;5.404;2023-07-08T11:50:03;101774.03;;;30.25;45.71
75414;BME280;64758;52.122;5.404;2023-07-08T11:52:30;101759.06;;;30.36;45.17
75414;BME280;64758;52.122;5.404;2023-07-08T11:55:08;101756.63;;;30.53;45.84
75414;BME280;64758;52.122;5.404;2023-07-08T11:57:42;101753.84;;;30.58;45.50
75414;BME280;64758;52.122;5.404;2023-07-08T12:02:50;101757.56;;;30.67;43.45
75414;BME280;64758;52.122;5.404;2023-07-08T12:05:29;101758.38;;;30.86;41.49
75414;BME280;64758;52.122;5.404;2023-07-08T12:07:56;101760.06;;;31.00;42.99
75414;BME280;64758;52.122;5.404;2023-07-08T12:10:36;101750.69;;;31.01;43.55
75414;BME280;64758;52.122;5.404;2023-07-08T12:13:11;101743.16;;;31.12;39.69
75414;BME280;64758;52.122;5.404;2023-07-08T12:15:39;101746.44;;;31.27;42.21
75414;BME280;64758;52.122;5.404;2023-07-08T12:20:38;101746.28;;;31.37;44.49
75414;BME280;64758;52.122;5.404;2023-07-08T12:23:11;101750.44;;;31.35;39.87
75414;BME280;64758;52.122;5.404;2023-07-08T12:25:39;101734.25;;;31.33;41.30
75414;BME280;64758;52.122;5.404;2023-07-08T12:28:05;101735.00;;;31.39;41.99
75414;BME280;64758;52.122;5.404;2023-07-08T12:30:32;101736.44;;;31.49;43.54
75414;BME280;64758;52.122;5.404;2023-07-08T12:33:00;101733.09;;;31.52;44.02
75414;BME280;64758;52.122;5.404;2023-07-08T12:35:29;101733.44;;;31.64;38.49
75414;BME280;64758;52.122;5.404;2023-07-08T12:37:59;101724.81;;;31.84;39.40
75414;BME280;64758;52.122;5.404;2023-07-08T12:40:28;101725.91;;;31.83;39.85
75414;BME280;64758;52.122;5.404;2023-07-08T12:42:56;101721.53;;;31.82;38.93
75414;BME280;64758;52.122;5.404;2023-07-08T12:45:28;101721.59;;;32.04;39.06
75414;BME280;64758;52.122;5.404;2023-07-08T12:47:56;101726.31;;;32.17;39.49
75414;BME280;64758;52.122;5.404;2023-07-08T12:50:23;101719.69;;;32.18;37.49
75414;BME280;64758;52.122;5.404;2023-07-08T12:52:49;101722.84;;;32.25;38.09
75414;BME280;64758;52.122;5.404;2023-07-08T12:55:16;101715.59;;;32.29;36.72
75414;BME280;64758;52.122;5.404;2023-07-08T12:57:47;101717.31;;;32.39;36.20
75414;BME280;64758;52.122;5.404;2023-07-08T13:02:48;101718.28;;;32.70;36.76
75414;BME280;64758;52.122;5.404;2023-07-08T13:05:17;101715.66;;;32.65;38.52
75414;BME280;64758;52.122;5.404;2023-07-08T13:07:44;101712.03;;;32.78;39.16
75414;BME280;64758;52.122;5.404;2023-07-08T13:10:23;101718.59;;;32.90;37.74
75414;BME280;64758;52.122;5.404;2023-07-08T13:12:55;101710.78;;;33.05;30.94
75414;BME280;64758;52.122;5.404;2023-07-08T13:15:25;101720.28;;;33.21;30.81
75414;BME280;64758;52.122;5.404;2023-07-08T13:17:54;101722.47;;;33.33;32.65
75414;BME280;64758;52.122;5.404;2023-07-08T13:20:21;101716.19;;;33.41;33.78
75414;BME280;64758;52.122;5.404;2023-07-08T13:22:59;101707.59;;;33.42;31.79
75414;BME280;64758;52.122;5.404;2023-07-08T13:25:29;101711.66;;;33.45;32.40
75414;BME280;64758;52.122;5.404;2023-07-08T13:28:01;101705.28;;;33.36;34.40
75414;BME280;64758;52.122;5.404;2023-07-08T13:30:30;101708.47;;;33.21;32.01
75414;BME280;64758;52.122;5.404;2023-07-08T13:32:59;101712.50;;;33.23;34.94
75414;BME280;64758;52.122;5.404;2023-07-08T13:35:40;101704.88;;;33.20;35.26
75414;BME280;64758;52.122;5.404;2023-07-08T13:38:14;101706.38;;;33.26;35.03
75414;BME280;64758;52.122;5.404;2023-07-08T13:41:04;101711.97;;;33.43;33.65
75414;BME280;64758;52.122;5.404;2023-07-08T13:43:34;101710.25;;;33.56;33.97
75414;BME280;64758;52.122;5.404;2023-07-08T13:46:02;101714.13;;;33.77;32.63
75414;BME280;64758;52.122;5.404;2023-07-08T13:48:30;101713.69;;;34.00;33.23
75414;BME280;64758;52.122;5.404;2023-07-08T13:51:18;101704.19;;;34.23;31.75
75414;BME280;64758;52.122;5.404;2023-07-08T13:53:46;101704.53;;;34.55;32.31
75414;BME280;64758;52.122;5.404;2023-07-08T13:56:31;101708.75;;;34.95;33.17
75414;BME280;64758;52.122;5.404;2023-07-08T13:59:06;101701.25;;;35.30;33.06
75414;BME280;64758;52.122;5.404;2023-07-08T14:01:36;101699.88;;;35.53;31.57
75414;BME280;64758;52.122;5.404;2023-07-08T14:04:04;101702.94;;;35.97;32.12